createdAt,value
2023-02-03T00:00:39.398Z,102096.25
2023-02-03T00:01:42.128Z,102101.47
2023-02-03T00:02:56.443Z,102090.88
2023-02-03T00:03:58.039Z,102097.88
2023-02-03T00:05:01.877Z,102098.84
2023-02-03T00:06:24.699Z,102097.03
2023-02-03T00:07:27.201Z,102092.56
2023-02-03T00:08:29.894Z,102085.47
2023-02-03T00:09:31.530Z,102081.97
2023-02-03T00:10:34.798Z,102074.88
2023-02-03T00:11:36.538Z,102076.59
2023-02-03T00:12:39.245Z,102077.47
2023-02-03T00:13:40.777Z,102074.81
2023-02-03T00:14:43.255Z,102075.66
2023-02-03T00:15:44.801Z,102075.56
2023-02-03T00:16:47.360Z,102062.41
2023-02-03T00:17:48.947Z,102070.38
2023-02-03T00:18:51.665Z,102061.44
2023-02-03T00:19:53.257Z,102062.31
2023-02-03T00:20:57.078Z,102066.69
2023-02-03T00:21:58.627Z,102069.34
2023-02-03T00:23:06.087Z,102068.41
2023-02-03T00:24:08.861Z,102065.75
2023-02-03T00:25:10.631Z,102068.41
2023-02-03T00:26:15.047Z,102070.09
2023-02-03T00:27:16.601Z,102067.44
2023-02-03T00:28:19.525Z,102066.56
2023-02-03T00:29:25.622Z,102066.56
2023-02-03T00:30:29.901Z,102078.03
2023-02-03T00:31:41.549Z,102075.38
2023-02-03T00:32:51.213Z,102067.53
2023-02-03T00:33:55.220Z,102077.19
2023-02-03T00:34:58.131Z,102070.09
2023-02-03T00:36:06.125Z,102056.84
2023-02-03T00:37:08.594Z,102053.31
2023-02-03T00:38:10.156Z,102047.09
2023-02-03T00:39:13.093Z,102049.00
2023-02-03T00:40:15.467Z,102042.81
2023-02-03T00:41:18.121Z,102042.81
2023-02-03T00:42:19.658Z,102040.19
2023-02-03T00:43:22.453Z,102041.03
2023-02-03T00:44:24.288Z,102034.78
2023-02-03T00:45:27.367Z,102032.97
2023-02-03T00:46:28.939Z,102041.78
2023-02-03T00:47:31.484Z,102045.31
2023-02-03T00:48:33.107Z,102040.94
2023-02-03T00:49:35.601Z,102050.59
2023-02-03T00:50:37.373Z,102047.09
2023-02-03T00:51:41.289Z,102046.16
2023-02-03T00:52:42.825Z,102045.31
2023-02-03T00:53:45.507Z,102040.84
2023-02-03T00:54:47.058Z,102050.59
2023-02-03T00:55:49.561Z,102048.72
2023-02-03T00:56:52.030Z,102046.16
2023-02-03T00:57:54.878Z,102047.03
2023-02-03T00:58:57.747Z,102054.00
2023-02-03T00:59:59.662Z,102060.28
2023-02-03T01:01:02.192Z,102051.47
2023-02-03T01:02:03.844Z,102050.59
2023-02-03T01:03:06.692Z,102050.59
2023-02-03T01:04:08.293Z,102058.38
2023-02-03T01:05:10.782Z,102054.00
2023-02-03T01:06:14.978Z,102060.16
2023-02-03T01:07:18.909Z,102061.03
2023-02-03T01:08:20.534Z,102068.97
2023-02-03T01:09:23.370Z,102065.47
2023-02-03T01:10:25.318Z,102071.69
2023-02-03T01:11:29.345Z,102084.13
2023-02-03T01:12:31.075Z,102084.13
2023-02-03T01:13:33.565Z,102087.72
2023-02-03T01:14:35.148Z,102080.69
2023-02-03T01:15:37.638Z,102087.72
2023-02-03T01:16:39.806Z,102092.16
2023-02-03T01:17:42.490Z,102093.00
2023-02-03T01:18:46.035Z,102099.19
2023-02-03T01:19:48.828Z,102108.91
2023-02-03T01:20:50.342Z,102104.47
2023-02-03T01:21:52.871Z,102106.16
2023-02-03T01:22:55.702Z,102107.03
2023-02-03T01:23:59.916Z,102109.66
2023-02-03T01:25:01.440Z,102111.47
2023-02-03T01:26:05.700Z,102104.38
2023-02-03T01:27:07.299Z,102095.56
2023-02-03T01:28:09.848Z,102099.06
2023-02-03T01:29:11.623Z,102094.63
2023-02-03T01:30:14.681Z,102098.13
2023-02-03T01:31:18.384Z,102098.06
2023-02-03T01:32:21.054Z,102094.56
2023-02-03T01:33:22.668Z,102103.38
2023-02-03T01:34:25.302Z,102104.19
2023-02-03T01:35:27.051Z,102105.06
2023-02-03T01:36:31.313Z,102099.00
2023-02-03T01:37:40.142Z,102102.50
2023-02-03T01:38:44.739Z,102101.66
2023-02-03T01:39:46.277Z,102099.00
2023-02-03T01:40:48.802Z,102103.38
2023-02-03T01:41:50.325Z,102100.78
2023-02-03T01:42:53.748Z,102103.44
2023-02-03T01:43:58.031Z,102108.75
2023-02-03T01:45:01.275Z,102110.47
2023-02-03T01:46:07.342Z,102108.75
2023-02-03T01:47:22.626Z,102114.97
2023-02-03T01:48:24.418Z,102104.38
2023-02-03T01:49:31.325Z,102112.31
2023-02-03T01:50:37.317Z,102112.31
2023-02-03T01:51:42.299Z,102107.03
2023-02-03T01:52:48.140Z,102102.59
2023-02-03T01:53:53.347Z,102105.16
2023-02-03T01:54:59.230Z,102106.03
2023-02-03T01:56:04.784Z,102105.16
2023-02-03T01:57:13.979Z,102090.13
2023-02-03T01:58:21.718Z,102083.00
2023-02-03T01:59:24.516Z,102077.69
2023-02-03T02:00:27.573Z,102089.16
2023-02-03T02:01:34.997Z,102090.00
2023-02-03T02:02:38.375Z,102101.47
2023-02-03T02:03:44.120Z,102105.00
2023-02-03T02:04:54.870Z,102097.97
2023-02-03T02:06:03.916Z,102104.13
2023-02-03T02:07:07.849Z,102114.63
2023-02-03T02:08:15.392Z,102115.59
2023-02-03T02:09:19.492Z,102111.22
2023-02-03T02:10:21.449Z,102113.88
2023-02-03T02:11:24.167Z,102120.91
2023-02-03T02:12:25.793Z,102110.28
2023-02-03T02:13:30.567Z,102114.72
2023-02-03T02:14:33.891Z,102102.34
2023-02-03T02:15:45.173Z,102099.69
2023-02-03T02:16:54.471Z,102093.41
2023-02-03T02:18:14.543Z,102088.13
2023-02-03T02:19:39.000Z,102071.47
2023-02-03T02:21:24.117Z,102077.63
2023-02-03T02:22:38.153Z,102074.22
2023-02-03T02:24:05.664Z,102068.91
2023-02-03T02:25:48.020Z,102068.91
2023-02-03T02:26:57.584Z,102068.91
2023-02-03T02:28:19.983Z,102063.59
2023-02-03T02:29:53.701Z,102055.72
2023-02-03T02:31:23.678Z,102055.72
2023-02-03T02:32:43.476Z,102066.34
2023-02-03T02:33:55.750Z,102056.59
2023-02-03T02:35:04.597Z,102068.06
2023-02-03T02:36:19.932Z,102061.88
2023-02-03T02:37:29.923Z,102070.69
2023-02-03T02:38:47.775Z,102065.41
2023-02-03T02:39:58.061Z,102059.13
2023-02-03T02:41:05.601Z,102059.13
2023-02-03T02:42:15.100Z,102060.97
2023-02-03T02:43:20.951Z,102053.84
2023-02-03T02:44:26.601Z,102063.50
2023-02-03T02:45:32.072Z,102055.56
2023-02-03T02:46:39.643Z,102058.19
2023-02-03T02:47:43.121Z,102059.13
2023-02-03T02:48:51.118Z,102052.91
2023-02-03T02:49:59.072Z,102060.84
2023-02-03T02:51:15.787Z,102056.41
2023-02-03T02:52:18.932Z,102061.72
2023-02-03T02:53:25.606Z,102059.06
2023-02-03T02:54:29.642Z,102062.56
2023-02-03T02:55:35.076Z,102061.59
2023-02-03T02:56:40.214Z,102063.44
2023-02-03T02:57:43.529Z,102063.44
2023-02-03T02:58:48.666Z,102066.91
2023-02-03T02:59:51.505Z,102060.84
2023-02-03T03:00:53.026Z,102046.66
2023-02-03T03:01:55.569Z,102049.31
2023-02-03T03:03:07.559Z,102036.06
2023-02-03T03:04:13.288Z,102043.06
2023-02-03T03:05:17.628Z,102043.91
2023-02-03T03:06:25.940Z,102035.09
2023-02-03T03:07:29.460Z,102036.06
2023-02-03T03:08:36.906Z,102021.84
2023-02-03T03:09:42.078Z,102021.94
2023-02-03T03:10:46.031Z,102022.03
2023-02-03T03:11:51.644Z,102023.75
2023-02-03T03:13:00.150Z,102023.75
2023-02-03T03:14:04.216Z,102026.41
2023-02-03T03:15:11.845Z,102026.41
2023-02-03T03:16:14.673Z,102033.59
2023-02-03T03:17:21.949Z,102037.94
2023-02-03T03:18:30.101Z,102037.09
2023-02-03T03:19:35.825Z,102046.84
2023-02-03T03:20:42.800Z,102046.06
2023-02-03T03:21:51.542Z,102052.22
2023-02-03T03:22:57.414Z,102052.22
2023-02-03T03:24:04.101Z,102052.31
2023-02-03T03:25:13.796Z,102061.09
2023-02-03T03:26:21.502Z,102058.44
2023-02-03T03:27:24.397Z,102058.44
2023-02-03T03:28:34.021Z,102057.63
2023-02-03T03:29:40.504Z,102067.38
2023-02-03T03:30:42.298Z,102065.66
2023-02-03T03:31:46.584Z,102061.22
2023-02-03T03:32:48.913Z,102061.09
2023-02-03T03:33:53.198Z,102055.81
2023-02-03T03:35:06.068Z,102057.63
2023-02-03T03:36:17.133Z,102048.81
2023-02-03T03:37:20.567Z,102055.91
2023-02-03T03:38:32.068Z,102057.63
2023-02-03T03:39:37.231Z,102048.88
2023-02-03T03:40:44.559Z,102047.94
2023-02-03T03:41:56.365Z,102047.94
2023-02-03T03:43:01.829Z,102040.00
2023-02-03T03:44:06.833Z,102047.94
2023-02-03T03:45:17.065Z,102040.00
2023-02-03T03:46:23.424Z,102050.59
2023-02-03T03:47:32.054Z,102045.31
2023-02-03T03:48:39.805Z,102050.59
2023-02-03T03:49:46.914Z,102054.88
2023-02-03T03:50:55.819Z,102069.06
2023-02-03T03:52:02.298Z,102062.94
2023-02-03T03:53:06.908Z,102059.31
2023-02-03T03:54:12.402Z,102056.66
2023-02-03T03:55:16.485Z,102059.31
2023-02-03T03:56:23.575Z,102056.66
2023-02-03T03:57:30.514Z,102051.34
2023-02-03T03:58:33.699Z,102046.06
2023-02-03T03:59:39.253Z,102030.09
2023-02-03T04:00:42.736Z,102030.16
2023-02-03T04:01:47.276Z,102032.72
2023-02-03T04:02:53.793Z,102036.25
2023-02-03T04:03:58.360Z,102034.44
2023-02-03T04:05:04.460Z,102035.28
2023-02-03T04:06:06.517Z,102027.50
2023-02-03T04:07:09.031Z,102030.09
2023-02-03T04:08:10.580Z,102034.44
2023-02-03T04:09:13.170Z,102029.97
2023-02-03T04:10:23.248Z,102032.63
2023-02-03T04:11:43.456Z,102042.41
2023-02-03T04:12:45.941Z,102043.22
2023-02-03T04:13:47.431Z,102035.28
2023-02-03T04:14:50.281Z,102036.25
2023-02-03T04:15:52.320Z,102043.22
2023-02-03T04:16:54.984Z,102044.94
2023-02-03T04:17:57.038Z,102052.91
2023-02-03T04:19:08.448Z,102049.31
2023-02-03T04:20:13.173Z,102050.25
2023-02-03T04:21:15.873Z,102051.97
2023-02-03T04:22:17.545Z,102051.88
2023-02-03T04:23:20.026Z,102054.53
2023-02-03T04:24:21.557Z,102052.72
2023-02-03T04:25:24.295Z,102049.16
2023-02-03T04:26:25.909Z,102049.16
2023-02-03T04:27:28.806Z,102049.16
2023-02-03T04:28:30.321Z,102053.59
2023-02-03T04:29:33.050Z,102050.06
2023-02-03T04:30:34.932Z,102047.41
2023-02-03T04:31:38.442Z,102057.09
2023-02-03T04:32:40.189Z,102051.78
2023-02-03T04:33:42.659Z,102054.44
2023-02-03T04:34:44.344Z,102057.97
2023-02-03T04:35:48.198Z,102059.75
2023-02-03T04:36:50.694Z,102061.47
2023-02-03T04:37:52.460Z,102063.16
2023-02-03T04:38:54.935Z,102057.00
2023-02-03T04:39:56.892Z,102052.56
2023-02-03T04:40:59.411Z,102051.63
2023-02-03T04:42:01.497Z,102038.44
2023-02-03T04:43:08.797Z,102057.84
2023-02-03T04:44:10.336Z,102060.50
2023-02-03T04:45:13.382Z,102051.78
2023-02-03T04:46:15.447Z,102049.03
2023-02-03T04:47:19.086Z,102053.50
2023-02-03T04:48:20.601Z,102044.69
2023-02-03T04:49:23.066Z,102048.22
2023-02-03T04:50:24.700Z,102041.19
2023-02-03T04:51:28.663Z,102035.88
2023-02-03T04:52:30.240Z,102037.69
2023-02-03T04:53:33.992Z,102033.25
2023-02-03T04:54:35.537Z,102031.53
2023-02-03T04:55:38.231Z,102028.88
2023-02-03T04:56:39.774Z,102035.03
2023-02-03T04:57:42.746Z,102032.38
2023-02-03T04:58:44.644Z,102032.31
2023-02-03T04:59:57.095Z,102019.06
2023-02-03T05:00:58.773Z,102016.41
2023-02-03T05:02:03.184Z,102012.88
2023-02-03T05:03:04.747Z,102014.69
2023-02-03T05:04:07.297Z,102027.84
2023-02-03T05:05:08.961Z,102021.78
2023-02-03T05:06:11.423Z,102025.28
2023-02-03T05:07:14.297Z,102027.00
2023-02-03T05:08:16.799Z,102029.66
2023-02-03T05:09:28.651Z,102023.50
2023-02-03T05:10:30.366Z,102012.97
2023-02-03T05:11:33.431Z,102015.53
2023-02-03T05:12:34.989Z,102021.78
2023-02-03T05:13:37.447Z,102021.78
2023-02-03T05:14:38.977Z,102018.25
2023-02-03T05:15:41.477Z,102018.25
2023-02-03T05:16:43.050Z,102014.69
2023-02-03T05:17:45.581Z,102012.97
2023-02-03T05:18:47.173Z,102023.56
2023-02-03T05:19:49.667Z,102015.53
2023-02-03T05:20:51.215Z,102016.53
2023-02-03T05:21:53.748Z,102018.25
2023-02-03T05:22:58.135Z,102016.53
2023-02-03T05:24:03.074Z,102005.94
2023-02-03T05:25:08.488Z,102009.56
2023-02-03T05:26:11.674Z,102011.25
2023-02-03T05:27:13.941Z,102007.75
2023-02-03T05:28:16.529Z,101995.34
2023-02-03T05:29:18.081Z,102000.63
2023-02-03T05:30:20.576Z,102005.94
2023-02-03T05:31:22.209Z,102005.00
2023-02-03T05:32:24.751Z,102005.00
2023-02-03T05:33:27.406Z,102009.38
2023-02-03T05:34:28.991Z,102006.81
2023-02-03T05:35:31.505Z,102011.25
2023-02-03T05:36:33.296Z,102007.66
2023-02-03T05:37:35.785Z,102014.69
2023-02-03T05:38:38.662Z,102011.16
2023-02-03T05:39:41.161Z,102010.31
2023-02-03T05:41:00.672Z,102018.19
2023-02-03T05:42:03.259Z,102017.34
2023-02-03T05:43:04.887Z,102013.91
2023-02-03T05:44:07.977Z,102010.31
2023-02-03T05:45:19.533Z,102012.97
2023-02-03T05:46:22.894Z,102021.84
2023-02-03T05:47:24.523Z,102019.97
2023-02-03T05:48:27.045Z,102029.72
2023-02-03T05:49:29.586Z,102035.03
2023-02-03T05:50:33.258Z,102034.97
2023-02-03T05:51:35.777Z,102036.81
2023-02-03T05:52:37.377Z,102036.75
2023-02-03T05:53:41.237Z,102033.13
2023-02-03T05:54:42.736Z,102027.00
2023-02-03T05:55:45.258Z,102028.69
2023-02-03T05:56:47.095Z,102027.84
2023-02-03T05:57:49.589Z,102030.47
2023-02-03T05:58:53.133Z,102027.00
2023-02-03T05:59:55.718Z,102029.66
2023-02-03T06:00:57.276Z,102027.00
2023-02-03T06:01:59.811Z,102029.66
2023-02-03T06:03:03.442Z,102027.84
2023-02-03T06:04:06.799Z,102027.84
2023-02-03T06:05:09.214Z,102034.00
2023-02-03T06:06:11.820Z,102033.06
2023-02-03T06:07:13.798Z,102030.41
2023-02-03T06:08:16.895Z,102035.78
2023-02-03T06:09:19.773Z,102041.00
2023-02-03T06:10:23.060Z,102041.94
2023-02-03T06:11:25.609Z,102044.59
2023-02-03T06:12:29.092Z,102038.44
2023-02-03T06:13:32.137Z,102027.94
2023-02-03T06:14:33.737Z,102014.69
2023-02-03T06:15:36.358Z,102019.88
2023-02-03T06:16:38.948Z,102026.03
2023-02-03T06:17:43.577Z,102021.69
2023-02-03T06:18:46.112Z,102018.09
2023-02-03T06:19:48.589Z,102018.09
2023-02-03T06:20:50.490Z,102016.41
2023-02-03T06:21:53.136Z,102018.09
2023-02-03T06:22:54.644Z,102021.59
2023-02-03T06:23:57.376Z,102027.75
2023-02-03T06:25:01.464Z,102037.44
2023-02-03T06:26:12.866Z,102046.31
2023-02-03T06:27:16.544Z,102034.00
2023-02-03T06:28:20.043Z,102046.31
2023-02-03T06:29:21.888Z,102046.31
2023-02-03T06:30:24.724Z,102048.97
2023-02-03T06:31:27.359Z,102048.03
2023-02-03T06:32:28.955Z,102049.72
2023-02-03T06:33:32.059Z,102055.03
2023-02-03T06:34:33.694Z,102055.03
2023-02-03T06:35:36.316Z,102044.41
2023-02-03T06:36:37.855Z,102029.38
2023-02-03T06:37:41.099Z,102039.13
2023-02-03T06:38:42.668Z,102030.22
2023-02-03T06:39:45.376Z,102019.63
2023-02-03T06:40:48.287Z,102022.19
2023-02-03T06:41:51.694Z,102029.28
2023-02-03T06:42:53.254Z,102025.78
2023-02-03T06:43:55.793Z,102029.28
2023-02-03T06:44:57.346Z,102036.28
2023-02-03T06:45:59.906Z,102028.34
2023-02-03T06:47:02.839Z,102031.94
2023-02-03T06:48:05.605Z,102038.09
2023-02-03T06:49:08.243Z,102034.59
2023-02-03T06:50:13.152Z,102033.63
2023-02-03T06:51:14.664Z,102035.34
2023-02-03T06:52:17.207Z,102028.16
2023-02-03T06:53:20.509Z,102033.47
2023-02-03T06:54:23.506Z,102027.31
2023-02-03T06:55:26.216Z,102023.81
2023-02-03T06:56:30.774Z,102017.53
2023-02-03T06:57:32.584Z,102027.31
2023-02-03T06:58:35.102Z,102023.72
2023-02-03T06:59:36.690Z,102028.16
2023-02-03T07:00:43.770Z,102029.88
2023-02-03T07:01:45.440Z,102038.69
2023-02-03T07:02:54.345Z,102029.88
2023-02-03T07:03:58.733Z,102012.25
2023-02-03T07:05:00.289Z,102011.31
2023-02-03T07:06:02.774Z,102022.69
2023-02-03T07:07:04.705Z,102027.22
2023-02-03T07:08:07.677Z,102021.84
2023-02-03T07:09:10.196Z,102029.88
2023-02-03T07:10:12.737Z,102024.56
2023-02-03T07:11:14.279Z,102039.44
2023-02-03T07:12:18.493Z,102037.66
2023-02-03T07:13:21.316Z,102042.09
2023-02-03T07:14:35.284Z,102034.13
2023-02-03T07:15:39.138Z,102033.31
2023-02-03T07:16:42.338Z,102043.91
2023-02-03T07:17:46.855Z,102045.59
2023-02-03T07:18:48.524Z,102043.91
2023-02-03T07:19:51.044Z,102056.22
2023-02-03T07:20:53.953Z,102050.91
2023-02-03T07:21:55.591Z,102045.59
2023-02-03T07:22:58.937Z,102050.03
2023-02-03T07:24:02.225Z,102045.59
2023-02-03T07:25:05.229Z,102047.31
2023-02-03T07:26:08.995Z,102035.84
2023-02-03T07:27:11.479Z,102034.91
2023-02-03T07:28:15.393Z,102042.00
2023-02-03T07:29:16.943Z,102042.78
2023-02-03T07:30:19.893Z,102034.81
2023-02-03T07:31:21.887Z,102033.13
2023-02-03T07:32:24.468Z,102043.75
2023-02-03T07:33:27.567Z,102037.56
2023-02-03T07:34:29.224Z,102038.44
2023-02-03T07:35:32.093Z,102043.75
2023-02-03T07:36:33.637Z,102049.88
2023-02-03T07:37:36.350Z,102056.03
2023-02-03T07:38:38.112Z,102056.88
2023-02-03T07:39:42.335Z,102050.72
2023-02-03T07:40:44.021Z,102061.34
2023-02-03T07:41:46.651Z,102061.34
2023-02-03T07:42:49.351Z,102057.75
2023-02-03T07:43:53.207Z,102046.28
2023-02-03T07:44:54.776Z,102053.38
2023-02-03T07:45:57.345Z,102039.19
2023-02-03T07:46:59.871Z,102046.28
2023-02-03T07:48:02.356Z,102043.56
2023-02-03T07:49:05.829Z,102048.00
2023-02-03T07:50:08.549Z,102057.75
2023-02-03T07:51:11.165Z,102051.50
2023-02-03T07:52:13.726Z,102045.41
2023-02-03T07:53:15.694Z,102041.84
2023-02-03T07:54:18.388Z,102046.22
2023-02-03T07:55:23.731Z,102043.56
2023-02-03T07:56:26.270Z,102044.41
2023-02-03T07:57:28.822Z,102031.97
2023-02-03T07:58:40.373Z,102034.63
2023-02-03T07:59:45.768Z,102043.44
2023-02-03T08:00:47.661Z,102042.59
2023-02-03T08:01:50.204Z,102042.59
2023-02-03T08:02:52.487Z,102049.72
2023-02-03T08:03:55.413Z,102054.91
2023-02-03T08:04:58.029Z,102057.56
2023-02-03T08:06:00.652Z,102058.31
2023-02-03T08:07:03.024Z,102058.31
2023-02-03T08:08:06.118Z,102055.66
2023-02-03T08:09:08.036Z,102056.53
2023-02-03T08:10:13.311Z,102049.44
2023-02-03T08:11:15.845Z,102061.84
2023-02-03T08:12:17.385Z,102058.31
2023-02-03T08:13:19.893Z,102060.03
2023-02-03T08:14:22.433Z,102067.06
2023-02-03T08:15:26.401Z,102069.72
2023-02-03T08:16:27.986Z,102076.75
2023-02-03T08:17:31.140Z,102070.56
2023-02-03T08:18:33.780Z,102072.38
2023-02-03T08:19:35.339Z,102076.75
2023-02-03T08:20:38.997Z,102082.03
2023-02-03T08:21:42.068Z,102082.88
2023-02-03T08:22:44.783Z,102084.69
2023-02-03T08:23:47.599Z,102089.03
2023-02-03T08:24:50.084Z,102092.66
2023-02-03T08:25:53.260Z,102089.03
2023-02-03T08:26:55.764Z,102089.91
2023-02-03T08:27:57.660Z,102082.81
2023-02-03T08:29:00.140Z,102087.16
2023-02-03T08:30:02.710Z,102090.66
2023-02-03T08:31:11.680Z,102088.97
2023-02-03T08:32:16.539Z,102079.22
2023-02-03T08:33:29.604Z,102085.44
2023-02-03T08:34:34.016Z,102085.44
2023-02-03T08:35:36.843Z,102094.34
2023-02-03T08:36:40.036Z,102089.03
2023-02-03T08:37:42.904Z,102077.56
2023-02-03T08:38:44.444Z,102079.28
2023-02-03T08:39:47.292Z,102082.81
2023-02-03T08:40:49.826Z,102081.94
2023-02-03T08:41:52.300Z,102084.53
2023-02-03T08:42:53.963Z,102088.84
2023-02-03T08:43:56.515Z,102089.72
2023-02-03T08:44:59.241Z,102088.78
2023-02-03T08:46:03.875Z,102078.94
2023-02-03T08:47:08.615Z,102086.81
2023-02-03T08:48:11.115Z,102086.03
2023-02-03T08:49:13.621Z,102083.38
2023-02-03T08:50:16.112Z,102085.09
2023-02-03T08:51:17.984Z,102082.44
2023-02-03T08:52:22.108Z,102085.19
2023-02-03T08:53:24.591Z,102091.44
2023-02-03T08:54:27.432Z,102094.09
2023-02-03T08:55:30.512Z,102090.59
2023-02-03T08:56:34.002Z,102100.31
2023-02-03T08:57:37.548Z,102097.78
2023-02-03T08:58:39.273Z,102097.78
2023-02-03T08:59:44.167Z,102093.41
2023-02-03T09:00:50.108Z,102096.91
2023-02-03T09:01:53.917Z,102093.41
2023-02-03T09:02:56.821Z,102104.88
2023-02-03T09:04:01.834Z,102096.13
2023-02-03T09:05:03.665Z,102100.50
2023-02-03T09:06:07.934Z,102108.56
2023-02-03T09:07:11.255Z,102100.69
2023-02-03T09:08:20.162Z,102098.97
2023-02-03T09:09:26.317Z,102107.03
2023-02-03T09:10:29.920Z,102104.38
2023-02-03T09:11:42.181Z,102107.19
2023-02-03T09:12:44.911Z,102105.47
2023-02-03T09:13:48.519Z,102099.31
2023-02-03T09:14:51.270Z,102109.94
2023-02-03T09:15:53.775Z,102102.91
2023-02-03T09:16:55.747Z,102107.38
2023-02-03T09:17:59.589Z,102111.72
2023-02-03T09:19:02.078Z,102118.75
2023-02-03T09:20:05.433Z,102109.94
2023-02-03T09:21:13.947Z,102105.47
2023-02-03T09:22:23.485Z,102109.94
2023-02-03T09:23:25.999Z,102103.75
2023-02-03T09:24:28.618Z,102098.47
2023-02-03T09:25:31.099Z,102102.91
2023-02-03T09:26:32.627Z,102114.38
2023-02-03T09:27:35.303Z,102102.06
2023-02-03T09:28:36.920Z,102110.09
2023-02-03T09:29:39.510Z,102101.28
2023-02-03T09:30:41.405Z,102106.59
2023-02-03T09:31:48.242Z,102106.59
2023-02-03T09:32:54.442Z,102104.91
2023-02-03T09:34:03.708Z,102123.47
2023-02-03T09:35:06.666Z,102107.69
2023-02-03T09:36:19.185Z,102096.25
2023-02-03T09:37:30.386Z,102106.88
2023-02-03T09:38:34.605Z,102105.03
2023-02-03T09:39:37.415Z,102102.41
2023-02-03T09:40:40.528Z,102090.97
2023-02-03T09:42:07.491Z,102105.91
2023-02-03T09:43:25.200Z,102098.06
2023-02-03T09:44:38.098Z,102114.91
2023-02-03T09:45:40.716Z,102110.53
2023-02-03T09:46:46.246Z,102110.53
2023-02-03T09:47:54.042Z,102116.78
2023-02-03T09:49:14.663Z,102105.31
2023-02-03T09:50:31.033Z,102095.56
2023-02-03T09:51:41.162Z,102098.22
2023-02-03T09:52:45.178Z,102102.56
2023-02-03T09:53:55.925Z,102101.75
2023-02-03T09:55:03.253Z,102103.59
2023-02-03T09:56:05.904Z,102105.41
2023-02-03T09:57:16.048Z,102106.34
2023-02-03T09:58:22.796Z,102115.06
2023-02-03T09:59:26.161Z,102106.19
2023-02-03T10:00:33.576Z,102106.19
2023-02-03T10:01:43.704Z,102111.50
2023-02-03T10:02:56.562Z,102106.94
2023-02-03T10:04:05.351Z,102119.34
2023-02-03T10:05:21.248Z,102112.34
2023-02-03T10:06:32.655Z,102120.38
2023-02-03T10:07:45.640Z,102119.50
2023-02-03T10:09:18.240Z,102114.22
2023-02-03T10:10:34.901Z,102116.00
2023-02-03T10:12:02.949Z,102123.09
2023-02-03T10:13:20.004Z,102123.09
2023-02-03T10:14:36.745Z,102113.34
2023-02-03T10:15:52.800Z,102126.59
2023-02-03T10:17:10.952Z,102113.34
2023-02-03T10:18:15.034Z,102113.34
2023-02-03T10:19:21.450Z,102115.06
2023-02-03T10:20:35.732Z,102120.38
2023-02-03T10:21:40.255Z,102111.50
2023-02-03T10:22:46.773Z,102110.53
2023-02-03T10:23:51.136Z,102118.47
2023-02-03T10:25:00.534Z,102115.75
2023-02-03T10:26:20.710Z,102104.13
2023-02-03T10:27:25.878Z,102104.91
2023-02-03T10:28:41.452Z,102111.13
2023-02-03T10:30:00.152Z,102116.25
2023-02-03T10:31:09.862Z,102110.03
2023-02-03T10:32:14.007Z,102113.63
2023-02-03T10:33:18.760Z,102097.69
2023-02-03T10:34:22.907Z,102107.38
2023-02-03T10:35:34.884Z,102111.72
2023-02-03T10:36:51.836Z,102108.13
2023-02-03T10:37:59.329Z,102107.19
2023-02-03T10:39:07.382Z,102102.66
2023-02-03T10:40:14.251Z,102101.72
2023-02-03T10:41:17.052Z,102098.09
2023-02-03T10:42:20.306Z,102110.44
2023-02-03T10:43:40.594Z,102093.59
2023-02-03T10:44:45.463Z,102100.63
2023-02-03T10:45:49.497Z,102107.59
2023-02-03T10:46:53.475Z,102108.47
2023-02-03T10:47:56.043Z,102113.78
2023-02-03T10:48:59.062Z,102106.66
2023-02-03T10:50:17.624Z,102112.84
2023-02-03T10:51:24.188Z,102110.94
2023-02-03T10:52:37.219Z,102106.56
2023-02-03T10:53:47.442Z,102112.72
2023-02-03T10:54:50.287Z,102103.09
2023-02-03T10:56:03.596Z,102104.78
2023-02-03T10:57:11.211Z,102110.00
2023-02-03T10:58:17.761Z,102108.22
2023-02-03T10:59:30.340Z,102103.84
2023-02-03T11:00:34.295Z,102101.13
2023-02-03T11:01:50.126Z,102112.47
2023-02-03T11:03:08.950Z,102107.19
2023-02-03T11:04:26.830Z,102098.28
2023-02-03T11:05:30.099Z,102098.19
2023-02-03T11:06:36.575Z,102098.97
2023-02-03T11:07:38.581Z,102090.16
2023-02-03T11:08:43.625Z,102093.66
2023-02-03T11:09:46.240Z,102093.66
2023-02-03T11:10:48.382Z,102084.72
2023-02-03T11:12:06.283Z,102088.25
2023-02-03T11:13:13.216Z,102094.41
2023-02-03T11:14:18.122Z,102095.28
2023-02-03T11:15:21.147Z,102093.47
2023-02-03T11:16:25.458Z,102102.19
2023-02-03T11:17:32.835Z,102095.16
2023-02-03T11:18:54.014Z,102107.50
2023-02-03T11:20:03.579Z,102102.19
2023-02-03T11:21:16.271Z,102107.50
2023-02-03T11:22:31.106Z,102092.50
2023-02-03T11:23:32.972Z,102108.44
2023-02-03T11:24:40.363Z,102103.97
2023-02-03T11:25:45.694Z,102103.97
2023-02-03T11:27:03.010Z,102111.09
2023-02-03T11:28:14.335Z,102116.38
2023-02-03T11:29:23.686Z,102113.75
2023-02-03T11:30:30.055Z,102120.84
2023-02-03T11:31:39.246Z,102120.94
2023-02-03T11:32:43.248Z,102118.28
2023-02-03T11:33:49.301Z,102112.97
2023-02-03T11:35:03.878Z,102117.34
2023-02-03T11:36:07.210Z,102112.97
2023-02-03T11:37:26.932Z,102121.69
2023-02-03T11:38:36.530Z,102112.81
2023-02-03T11:39:39.345Z,102118.09
2023-02-03T11:40:41.853Z,102118.09
2023-02-03T11:41:44.588Z,102134.88
2023-02-03T11:43:00.856Z,102114.59
2023-02-03T11:44:11.329Z,102127.88
2023-02-03T11:45:15.550Z,102131.38
2023-02-03T11:46:17.163Z,102122.56
2023-02-03T11:47:22.753Z,102126.06
2023-02-03T11:48:30.439Z,102132.13
2023-02-03T11:50:04.628Z,102125.13
2023-02-03T11:51:21.192Z,102125.13
2023-02-03T11:52:46.770Z,102123.41
2023-02-03T11:54:04.411Z,102128.53
2023-02-03T11:55:20.187Z,102119.72
2023-02-03T11:56:33.083Z,102119.66
2023-02-03T11:57:49.037Z,102119.66
2023-02-03T11:59:10.039Z,102122.31
2023-02-03T12:00:25.977Z,102130.25
2023-02-03T12:01:55.149Z,102123.16
2023-02-03T12:03:22.204Z,102128.38
2023-02-03T12:04:44.807Z,102129.22
2023-02-03T12:06:02.854Z,102129.22
2023-02-03T12:07:22.716Z,102130.84
2023-02-03T12:08:40.453Z,102122.88
2023-02-03T12:09:57.838Z,102121.19
2023-02-03T12:11:10.821Z,102121.19
2023-02-03T12:12:38.750Z,102121.09
2023-02-03T12:13:56.329Z,102123.66
2023-02-03T12:15:10.716Z,102126.38
2023-02-03T12:16:27.617Z,102125.47
2023-02-03T12:17:57.880Z,102121.94
2023-02-03T12:19:10.926Z,102124.50
2023-02-03T12:20:28.372Z,102128.00
2023-02-03T12:21:44.177Z,102121.84
2023-02-03T12:22:57.173Z,102125.34
2023-02-03T12:24:08.630Z,102124.41
2023-02-03T12:25:24.286Z,102123.47
2023-02-03T12:26:31.053Z,102117.22
2023-02-03T12:27:46.792Z,102123.38
2023-02-03T12:29:03.061Z,102129.53
2023-02-03T12:30:11.207Z,102131.25
2023-02-03T12:31:19.210Z,102131.25
2023-02-03T12:32:28.996Z,102132.13